createdAt,value
2022-08-05T00:01:27.823Z,69.60
2022-08-05T00:06:36.000Z,71.20
2022-08-05T00:11:48.489Z,72.70
2022-08-05T00:16:57.340Z,74.70
2022-08-05T00:22:00.660Z,78.40
2022-08-05T00:27:10.510Z,82.00
2022-08-05T00:32:25.900Z,86.10
2022-08-05T00:37:50.330Z,89.00
2022-08-05T00:42:55.141Z,90.80
2022-08-05T00:48:05.228Z,91.80
2022-08-05T00:53:45.454Z,93.00
2022-08-05T00:58:34.727Z,94.30
2022-08-05T01:03:39.625Z,94.90
2022-08-05T01:08:51.693Z,95.30
2022-08-05T01:14:02.701Z,94.60
2022-08-05T01:19:19.628Z,94.30
2022-08-05T01:24:59.020Z,94.60
2022-08-05T01:30:18.795Z,94.70
2022-08-05T01:35:51.656Z,94.30
2022-08-05T01:40:51.616Z,94.70
2022-08-05T01:45:57.007Z,96.00
2022-08-05T01:51:12.162Z,97.30
2022-08-05T01:58:09.943Z,97.10
2022-08-05T02:01:42.007Z,97.20
2022-08-05T02:06:44.996Z,96.40
2022-08-05T02:11:52.273Z,95.70
2022-08-05T02:16:58.079Z,94.90
2022-08-05T02:22:05.255Z,93.80
2022-08-05T02:27:10.845Z,94.60
2022-08-05T02:32:19.922Z,95.20
2022-08-05T02:37:27.603Z,95.00
2022-08-05T02:42:36.299Z,95.70
2022-08-05T02:48:06.878Z,95.90
2022-08-05T02:53:03.648Z,97.10
2022-08-05T02:58:12.113Z,99.90
2022-08-05T03:03:19.004Z,99.90
2022-08-05T03:08:29.868Z,99.90
2022-08-05T03:13:52.112Z,99.90
2022-08-05T03:18:55.375Z,99.90
2022-08-05T03:23:58.472Z,99.90
2022-08-05T03:29:01.375Z,99.90
2022-08-05T03:34:06.728Z,99.90
2022-08-05T03:39:26.744Z,99.90
2022-08-05T03:44:31.783Z,99.90
2022-08-05T03:49:51.566Z,99.90
2022-08-05T03:56:01.144Z,99.90
2022-08-05T04:06:04.436Z,99.90
2022-08-05T04:11:08.612Z,99.90
2022-08-05T04:22:08.178Z,99.90
2022-08-05T04:26:52.335Z,99.90
2022-08-05T04:32:03.214Z,99.90
2022-08-05T04:37:06.648Z,99.90
2022-08-05T04:42:09.324Z,99.90
2022-08-05T04:47:14.607Z,99.90
2022-08-05T04:52:20.337Z,99.90
2022-08-05T04:57:22.484Z,99.90
2022-08-05T05:02:36.261Z,99.90
2022-08-05T05:07:45.712Z,99.90
2022-08-05T05:12:55.003Z,99.90
2022-08-05T05:17:57.734Z,99.90
2022-08-05T05:23:08.324Z,99.90
2022-08-05T05:28:24.935Z,99.90
2022-08-05T05:33:27.465Z,99.90
2022-08-05T05:38:33.890Z,99.90
2022-08-05T05:43:58.555Z,99.90
2022-08-05T05:48:57.491Z,99.90
2022-08-05T05:54:00.913Z,99.90
2022-08-05T05:59:05.796Z,99.90
2022-08-05T06:04:11.930Z,99.90
2022-08-05T06:20:30.918Z,99.90
2022-08-05T06:26:12.976Z,99.90
2022-08-05T06:30:58.912Z,99.90
2022-08-05T06:36:07.251Z,99.90
2022-08-05T06:41:11.979Z,99.90
2022-08-05T06:46:15.248Z,99.90
2022-08-05T06:51:36.229Z,99.90
2022-08-05T06:56:42.780Z,99.90
2022-08-05T07:01:57.119Z,99.90
2022-08-05T07:07:00.306Z,99.90
2022-08-05T07:12:02.101Z,99.90
2022-08-05T07:17:58.903Z,99.90
2022-08-05T07:22:28.576Z,99.90
2022-08-05T07:27:57.064Z,99.90
2022-08-05T07:33:15.996Z,99.90
2022-08-05T07:38:32.515Z,99.90
2022-08-05T07:43:36.686Z,99.90
2022-08-05T07:49:02.410Z,99.90
2022-08-05T07:54:02.409Z,99.90
2022-08-05T07:59:04.289Z,99.90
2022-08-05T08:04:10.749Z,99.90
2022-08-05T08:09:14.046Z,99.90
2022-08-05T08:14:18.356Z,99.90
2022-08-05T08:20:21.616Z,99.90
2022-08-05T08:24:51.832Z,99.90
2022-08-05T08:46:38.495Z,99.90
2022-08-05T08:52:05.944Z,99.90
2022-08-05T08:57:06.521Z,99.90
2022-08-05T09:13:09.201Z,99.90
2022-08-05T09:23:48.127Z,99.90
2022-08-05T09:29:36.580Z,99.90
2022-08-05T09:34:53.195Z,99.90
2022-08-05T09:40:08.616Z,99.90
2022-08-05T09:46:05.183Z,99.90
2022-08-05T09:50:44.410Z,99.90
2022-08-05T09:56:12.847Z,99.90
2022-08-05T10:01:31.903Z,99.90
2022-08-05T10:06:36.098Z,99.90
2022-08-05T10:11:38.056Z,99.90
2022-08-05T10:16:52.215Z,99.90
2022-08-05T10:21:55.869Z,99.90
2022-08-05T10:27:00.617Z,99.90
2022-08-05T10:32:52.876Z,99.90
2022-08-05T10:37:27.247Z,99.90
2022-08-05T10:42:51.069Z,99.90
2022-08-05T10:48:29.779Z,99.90
2022-08-05T10:53:34.257Z,99.90
2022-08-05T10:59:11.434Z,99.90
2022-08-05T11:04:16.490Z,99.90
2022-08-05T11:09:32.426Z,99.90
2022-08-05T11:15:01.463Z,99.90
2022-08-05T11:20:32.381Z,99.90
2022-08-05T11:26:05.272Z,99.90
2022-08-05T11:37:06.201Z,99.90
2022-08-05T11:48:14.333Z,99.60
2022-08-05T11:53:26.532Z,99.90
2022-08-05T11:58:53.138Z,99.90
2022-08-05T12:15:35.932Z,97.40
2022-08-05T12:20:43.269Z,96.30
2022-08-05T12:25:53.381Z,95.20
2022-08-05T12:30:56.897Z,95.30
2022-08-05T12:36:03.387Z,94.70
2022-08-05T12:41:16.290Z,97.40
2022-08-05T12:46:29.575Z,96.40
2022-08-05T12:52:14.395Z,96.20
2022-08-05T12:57:09.732Z,97.00
2022-08-05T13:36:20.464Z,99.20
2022-08-05T13:41:25.782Z,99.90
2022-08-05T13:47:35.919Z,99.90
2022-08-05T13:52:50.963Z,99.30
2022-08-05T13:57:55.060Z,99.90
2022-08-05T14:03:09.682Z,99.90
2022-08-05T14:08:21.463Z,98.90
2022-08-05T14:13:30.381Z,99.20
2022-08-05T14:18:34.093Z,99.90
2022-08-05T14:23:44.826Z,99.10
2022-08-05T14:28:52.428Z,99.90
2022-08-05T14:33:59.755Z,99.90
2022-08-05T14:39:10.889Z,99.90
2022-08-05T14:44:20.687Z,99.90
2022-08-05T14:49:24.833Z,99.90
2022-08-05T14:54:52.865Z,99.90
2022-08-05T14:59:58.496Z,99.90
2022-08-05T15:05:00.784Z,99.90
2022-08-05T15:10:11.993Z,99.90
2022-08-05T15:15:15.526Z,99.90
2022-08-05T15:20:19.206Z,99.90
2022-08-05T15:25:23.407Z,99.90
2022-08-05T15:30:43.462Z,99.90
2022-08-05T15:35:45.753Z,99.90
2022-08-05T15:41:20.941Z,99.90
2022-08-05T15:46:11.075Z,99.90
2022-08-05T15:51:13.179Z,99.90
2022-08-05T15:56:16.534Z,99.90
2022-08-05T16:01:20.145Z,99.90
2022-08-05T16:06:31.120Z,99.90
2022-08-05T16:11:43.064Z,99.90
2022-08-05T16:16:46.133Z,99.90
2022-08-05T16:21:58.563Z,99.90
2022-08-05T16:27:04.995Z,99.90
2022-08-05T16:32:14.157Z,99.90
2022-08-05T16:38:15.362Z,99.90
2022-08-05T16:42:39.210Z,99.90
2022-08-05T16:47:53.487Z,99.90
2022-08-05T16:53:11.953Z,99.90
2022-08-05T16:58:22.137Z,99.90
2022-08-05T17:03:52.841Z,99.90
2022-08-05T17:08:55.120Z,99.90
2022-08-05T17:14:05.277Z,99.90
2022-08-05T17:19:09.666Z,99.90
2022-08-05T17:24:19.496Z,99.90
2022-08-05T17:29:41.189Z,99.90
2022-08-05T17:34:43.799Z,99.90
2022-08-05T17:39:45.680Z,99.90
2022-08-05T17:44:54.384Z,99.90
2022-08-05T17:50:10.229Z,99.90
2022-08-05T17:55:34.253Z,99.90
2022-08-05T18:01:01.001Z,99.90
2022-08-05T18:06:12.404Z,99.80
2022-08-05T18:28:06.089Z,99.90
2022-08-05T18:33:08.237Z,99.90
2022-08-05T18:38:10.165Z,99.90
2022-08-05T18:43:17.558Z,99.90
2022-08-05T18:48:31.510Z,99.90
2022-08-05T19:21:36.235Z,99.80
2022-08-05T19:26:43.886Z,98.80
2022-08-05T19:38:06.828Z,99.50
2022-08-05T19:48:48.756Z,98.90
2022-08-05T19:54:17.723Z,99.40
2022-08-05T19:59:59.488Z,98.90
2022-08-05T20:10:13.205Z,99.70
2022-08-05T20:15:23.139Z,99.90
2022-08-05T20:20:42.769Z,99.90
2022-08-05T20:25:46.061Z,99.90
2022-08-05T20:30:51.234Z,99.90
2022-08-05T20:35:54.980Z,99.90
2022-08-05T20:40:58.915Z,99.90
2022-08-05T20:46:01.504Z,99.90
2022-08-05T20:51:15.408Z,99.90
2022-08-05T20:56:28.086Z,99.90
2022-08-05T21:01:47.610Z,99.90
2022-08-05T21:06:53.507Z,99.90
2022-08-05T21:12:09.373Z,99.90
2022-08-05T21:17:13.188Z,99.90
2022-08-05T21:22:15.468Z,99.90
2022-08-05T21:27:25.041Z,99.90
2022-08-05T21:32:29.324Z,99.90
2022-08-05T21:37:31.679Z,99.90
2022-08-05T21:42:44.834Z,99.90
2022-08-05T21:48:08.064Z,99.90
2022-08-05T21:53:17.629Z,99.90
2022-08-05T21:58:24.858Z,99.90
2022-08-05T22:03:48.937Z,99.90
2022-08-05T22:08:55.164Z,99.90
2022-08-05T22:14:33.774Z,99.90
2022-08-05T22:20:01.069Z,99.90
2022-08-05T22:24:52.439Z,99.90
2022-08-05T22:29:56.923Z,99.90
2022-08-05T22:35:02.613Z,99.90
2022-08-05T22:40:06.018Z,99.90
2022-08-05T22:45:12.637Z,99.90
2022-08-05T22:50:19.595Z,99.90
2022-08-05T22:55:56.630Z,99.90
2022-08-05T23:00:53.354Z,99.90
2022-08-05T23:05:58.783Z,99.90
2022-08-05T23:11:02.790Z,99.90
2022-08-05T23:16:06.226Z,99.90
2022-08-05T23:21:16.450Z,99.90
2022-08-05T23:26:18.483Z,99.90
2022-08-05T23:31:21.860Z,99.90
2022-08-05T23:36:28.241Z,99.90
2022-08-05T23:41:30.774Z,99.90
2022-08-05T23:46:39.369Z,99.90
2022-08-05T23:51:43.478Z,99.90
2022-08-05T23:56:55.344Z,99.90
